createdAt,value
2017-08-25T00:00:29.187Z,10.70
2017-08-25T00:02:57.564Z,6.00
2017-08-25T00:05:25.713Z,6.10
2017-08-25T00:07:54.059Z,7.67
2017-08-25T00:10:22.413Z,7.53
2017-08-25T00:12:50.770Z,7.40
2017-08-25T00:15:19.443Z,6.47
2017-08-25T00:17:47.787Z,7.83
2017-08-25T00:20:16.910Z,5.50
2017-08-25T00:22:45.284Z,8.90
2017-08-25T00:25:13.661Z,5.87
2017-08-25T00:27:42.018Z,11.53
2017-08-25T00:30:10.370Z,6.03
2017-08-25T00:32:38.735Z,9.60
2017-08-25T00:35:07.085Z,5.80
2017-08-25T00:37:35.449Z,7.37
2017-08-25T00:40:03.933Z,7.57
2017-08-25T00:42:32.087Z,6.10
2017-08-25T00:45:01.488Z,7.67
2017-08-25T00:47:29.821Z,6.00
2017-08-25T00:49:59.082Z,6.90
2017-08-25T00:52:28.377Z,7.33
2017-08-25T00:54:56.386Z,6.63
2017-08-25T00:57:24.900Z,6.90
2017-08-25T00:59:54.023Z,10.07
2017-08-25T01:02:22.374Z,8.10
2017-08-25T01:04:50.753Z,8.90
2017-08-25T01:07:18.423Z,5.93
2017-08-25T01:09:46.830Z,9.03
2017-08-25T01:12:15.465Z,8.53
2017-08-25T01:14:43.840Z,8.83
2017-08-25T01:17:12.217Z,7.10
2017-08-25T01:19:40.563Z,7.27
2017-08-25T01:22:08.252Z,8.43
2017-08-25T01:24:36.420Z,6.53
2017-08-25T01:27:13.774Z,7.10
2017-08-25T01:29:42.546Z,9.87
2017-08-25T01:35:17.845Z,6.30
2017-08-25T01:37:45.919Z,7.13
2017-08-25T01:40:14.197Z,6.40
2017-08-25T01:42:42.357Z,9.80
2017-08-25T01:45:10.429Z,7.30
2017-08-25T01:47:38.442Z,10.07
2017-08-25T01:50:06.113Z,11.37
2017-08-25T01:52:34.324Z,5.80
2017-08-25T01:55:01.986Z,7.80
2017-08-25T01:57:30.582Z,6.60
2017-08-25T01:59:59.015Z,9.63
2017-08-25T02:02:27.526Z,11.13
2017-08-25T02:04:55.284Z,6.90
2017-08-25T02:07:23.630Z,9.50
2017-08-25T02:09:52.406Z,10.83
2017-08-25T02:12:20.774Z,9.83
2017-08-25T02:14:49.110Z,8.20
2017-08-25T02:17:17.468Z,7.50
2017-08-25T02:19:45.898Z,9.80
2017-08-25T02:22:14.255Z,14.07
2017-08-25T02:24:42.610Z,8.57
2017-08-25T02:27:11.280Z,8.60
2017-08-25T02:29:39.755Z,10.40
2017-08-25T02:32:08.100Z,10.80
2017-08-25T02:34:36.455Z,8.13
2017-08-25T02:37:05.088Z,10.63
2017-08-25T02:39:33.440Z,10.17
2017-08-25T02:42:01.782Z,8.87
2017-08-25T02:44:30.135Z,8.90
2017-08-25T02:46:59.170Z,8.90
2017-08-25T02:49:28.328Z,8.63
2017-08-25T02:51:56.821Z,9.00
2017-08-25T02:54:25.357Z,8.70
2017-08-25T02:56:53.693Z,8.30
2017-08-25T02:59:22.808Z,12.43
2017-08-25T03:01:51.157Z,12.90
2017-08-25T03:04:19.514Z,8.90
2017-08-25T03:06:48.157Z,14.17
2017-08-25T03:09:16.498Z,8.40
2017-08-25T03:11:44.951Z,9.00
2017-08-25T03:14:13.319Z,11.00
2017-08-25T03:16:41.673Z,9.10
2017-08-25T03:19:10.020Z,8.67
2017-08-25T03:21:38.366Z,9.13
2017-08-25T03:24:06.720Z,8.33
2017-08-25T03:26:35.089Z,9.73
2017-08-25T03:29:03.442Z,14.03
2017-08-25T03:31:31.784Z,10.30
2017-08-25T03:34:00.145Z,10.97
2017-08-25T03:36:28.501Z,16.13
2017-08-25T03:38:56.866Z,14.53
2017-08-25T03:41:25.214Z,11.53
2017-08-25T03:43:53.593Z,8.93
2017-08-25T03:46:22.186Z,10.97
2017-08-25T03:48:50.596Z,9.43
2017-08-25T03:51:18.968Z,11.50
2017-08-25T03:53:47.325Z,8.70
2017-08-25T03:56:15.683Z,10.80
2017-08-25T03:58:44.257Z,11.40
2017-08-25T04:01:12.626Z,10.07
2017-08-25T04:03:41.006Z,13.23
2017-08-25T04:06:09.344Z,14.70
2017-08-25T04:08:37.702Z,13.33
2017-08-25T04:11:06.058Z,11.93
2017-08-25T04:13:34.410Z,9.53
2017-08-25T04:16:02.989Z,12.73
2017-08-25T04:18:31.415Z,13.40
2017-08-25T04:20:59.775Z,11.47
2017-08-25T04:23:28.130Z,11.60
2017-08-25T04:25:56.489Z,10.93
2017-08-25T04:28:24.844Z,11.87
2017-08-25T04:30:53.290Z,10.27
2017-08-25T04:33:21.642Z,13.73
2017-08-25T04:35:50.204Z,15.60
2017-08-25T04:38:18.543Z,11.17
2017-08-25T04:40:46.649Z,9.70
2017-08-25T04:43:15.329Z,9.63
2017-08-25T04:45:44.008Z,12.57
2017-08-25T04:48:12.363Z,10.73
2017-08-25T04:50:40.757Z,11.97
2017-08-25T04:53:09.184Z,13.00
2017-08-25T04:55:37.782Z,12.90
2017-08-25T04:58:06.192Z,11.87
2017-08-25T05:00:34.997Z,13.23
2017-08-25T05:03:03.359Z,13.67
2017-08-25T05:05:31.735Z,12.23
2017-08-25T05:08:00.082Z,10.20
2017-08-25T05:10:28.598Z,11.03
2017-08-25T05:12:59.565Z,11.23
2017-08-25T05:15:27.919Z,11.57
2017-08-25T05:17:59.242Z,12.27
2017-08-25T05:20:27.718Z,11.27
2017-08-25T05:23:02.006Z,11.67
2017-08-25T05:25:30.354Z,14.03
2017-08-25T05:27:58.715Z,12.13
2017-08-25T05:30:27.067Z,16.67
2017-08-25T05:32:56.180Z,13.00
2017-08-25T05:35:24.534Z,16.80
2017-08-25T05:37:52.912Z,19.80
2017-08-25T05:40:21.482Z,16.97
2017-08-25T05:42:49.917Z,15.30
2017-08-25T05:45:18.541Z,17.87
2017-08-25T05:47:46.887Z,15.57
2017-08-25T05:50:16.018Z,17.53
2017-08-25T05:52:44.365Z,18.73
2017-08-25T05:55:12.736Z,18.03
2017-08-25T05:57:41.292Z,14.70
2017-08-25T06:00:10.308Z,14.37
2017-08-25T06:02:39.432Z,16.30
2017-08-25T06:05:07.801Z,12.37
2017-08-25T06:07:36.151Z,12.97
2017-08-25T06:10:04.524Z,15.53
2017-08-25T06:12:33.148Z,14.97
2017-08-25T06:15:01.512Z,18.90
2017-08-25T06:17:29.947Z,15.40
2017-08-25T06:19:58.302Z,17.10
2017-08-25T06:22:26.945Z,14.37
2017-08-25T06:24:55.283Z,12.90
2017-08-25T06:27:23.644Z,16.37
2017-08-25T06:29:52.071Z,15.87
2017-08-25T06:32:20.549Z,17.87
2017-08-25T06:34:48.905Z,18.90
2017-08-25T06:37:17.275Z,16.67
2017-08-25T06:39:46.405Z,15.50
2017-08-25T06:42:15.542Z,18.03
2017-08-25T06:44:43.903Z,13.97
2017-08-25T06:47:12.262Z,19.67
2017-08-25T06:49:40.843Z,17.30
2017-08-25T06:52:09.210Z,13.37
2017-08-25T06:54:37.561Z,17.10
2017-08-25T06:57:05.919Z,19.57
2017-08-25T06:59:34.319Z,19.93
2017-08-25T07:02:02.494Z,18.60
2017-08-25T07:04:31.601Z,18.77
2017-08-25T07:06:59.971Z,17.07
2017-08-25T07:09:28.335Z,18.70
2017-08-25T07:11:56.689Z,17.83
2017-08-25T07:14:25.084Z,16.67
2017-08-25T07:16:53.462Z,19.20
2017-08-25T07:19:22.043Z,20.70
2017-08-25T07:21:50.396Z,19.33
2017-08-25T07:24:19.553Z,28.90
2017-08-25T07:26:48.332Z,19.40
2017-08-25T07:29:16.694Z,20.23
2017-08-25T07:31:45.071Z,30.50
2017-08-25T07:34:13.530Z,22.63
2017-08-25T07:36:41.886Z,20.03
2017-08-25T07:39:10.381Z,21.20
2017-08-25T07:41:38.743Z,21.77
2017-08-25T07:44:07.104Z,19.00
2017-08-25T07:46:36.229Z,18.53
2017-08-25T07:49:04.704Z,21.93
2017-08-25T07:51:33.054Z,19.13
2017-08-25T07:54:01.428Z,20.67
2017-08-25T07:56:29.777Z,19.20
2017-08-25T07:58:58.141Z,24.73
2017-08-25T08:01:26.512Z,19.57
2017-08-25T08:03:54.862Z,20.00
2017-08-25T08:06:23.236Z,17.50
2017-08-25T08:08:51.605Z,18.13
2017-08-25T08:11:20.084Z,20.00
2017-08-25T08:13:48.436Z,20.47
2017-08-25T08:16:17.558Z,22.53
2017-08-25T08:18:46.690Z,22.33
2017-08-25T08:21:15.065Z,20.20
2017-08-25T08:23:43.426Z,20.83
2017-08-25T08:26:11.796Z,19.60
2017-08-25T08:28:40.151Z,16.90
2017-08-25T08:31:08.609Z,18.43
2017-08-25T08:33:36.972Z,22.43
2017-08-25T08:36:05.143Z,18.90
2017-08-25T08:38:33.516Z,18.10
2017-08-25T08:41:02.373Z,15.27
2017-08-25T08:43:30.718Z,17.50
2017-08-25T08:45:59.189Z,12.70
2017-08-25T08:48:27.564Z,11.30
2017-08-25T08:50:55.915Z,14.20
2017-08-25T08:53:25.046Z,16.73
2017-08-25T08:55:53.613Z,17.57
2017-08-25T08:58:21.990Z,12.07
2017-08-25T09:00:50.342Z,12.87
2017-08-25T09:03:18.699Z,10.57
2017-08-25T09:05:53.567Z,12.67
2017-08-25T09:08:21.942Z,12.83
2017-08-25T09:10:50.996Z,14.37
2017-08-25T09:13:25.560Z,17.00
2017-08-25T09:15:58.129Z,15.43
2017-08-25T09:18:28.143Z,16.00
2017-08-25T09:20:57.327Z,14.17
2017-08-25T09:23:30.052Z,15.70
2017-08-25T09:26:05.170Z,12.73
2017-08-25T09:28:33.807Z,11.07
2017-08-25T09:31:12.994Z,11.40
2017-08-25T09:36:26.605Z,12.40
2017-08-25T09:38:55.445Z,12.17
2017-08-25T09:41:25.133Z,8.73
2017-08-25T09:43:54.096Z,8.80
2017-08-25T09:46:30.805Z,8.30
2017-08-25T09:48:59.239Z,8.50
2017-08-25T09:51:27.612Z,9.37
2017-08-25T09:53:55.990Z,8.40
2017-08-25T09:56:24.230Z,7.43
2017-08-25T09:58:52.592Z,10.03
2017-08-25T10:01:20.943Z,6.20
2017-08-25T10:03:49.289Z,7.17
2017-08-25T10:06:18.006Z,11.03
2017-08-25T10:08:46.368Z,6.60
2017-08-25T10:11:14.722Z,9.00
2017-08-25T10:13:43.303Z,7.93
2017-08-25T10:16:11.677Z,9.80
2017-08-25T10:18:40.155Z,9.27
2017-08-25T10:21:08.492Z,9.90
2017-08-25T10:23:36.852Z,8.60
2017-08-25T10:26:05.415Z,7.67
2017-08-25T10:28:34.091Z,7.10
2017-08-25T10:31:02.458Z,6.33
2017-08-25T10:33:41.945Z,8.40
2017-08-25T10:36:21.564Z,10.83
2017-08-25T10:39:00.978Z,8.20
2017-08-25T10:41:40.531Z,10.87
2017-08-25T10:44:19.968Z,12.80
2017-08-25T10:46:48.323Z,7.80
2017-08-25T10:49:16.780Z,10.43
2017-08-25T10:51:45.155Z,7.37
2017-08-25T10:54:13.686Z,5.60
2017-08-25T10:56:42.035Z,10.63
2017-08-25T10:59:10.755Z,5.53
2017-08-25T11:01:39.412Z,20.17
2017-08-25T11:04:12.870Z,6.57
2017-08-25T11:06:43.116Z,8.90
2017-08-25T11:09:15.039Z,6.13
2017-08-25T11:11:43.397Z,6.00
2017-08-25T11:14:18.357Z,10.77
2017-08-25T11:16:46.729Z,6.13
2017-08-25T11:19:15.082Z,11.60
2017-08-25T11:21:44.198Z,6.30
2017-08-25T11:24:12.563Z,10.30
2017-08-25T11:26:40.917Z,8.40
2017-08-25T11:29:09.275Z,13.47
2017-08-25T11:31:37.967Z,7.97
2017-08-25T11:34:06.525Z,7.40
2017-08-25T11:36:34.879Z,9.63
2017-08-25T11:39:02.903Z,9.70
2017-08-25T11:41:31.415Z,8.17
2017-08-25T11:43:59.787Z,6.80
2017-08-25T11:46:28.133Z,9.17
2017-08-25T11:48:57.458Z,6.23
2017-08-25T11:51:25.929Z,5.77
2017-08-25T11:53:54.535Z,8.37
2017-08-25T11:56:23.091Z,8.57
2017-08-25T11:58:51.434Z,8.93
2017-08-25T12:01:19.951Z,5.67
2017-08-25T12:03:48.589Z,8.13
2017-08-25T12:06:16.945Z,8.30
2017-08-25T12:08:45.287Z,5.47
2017-08-25T12:11:13.643Z,6.50
2017-08-25T12:13:55.486Z,8.33
2017-08-25T12:16:24.646Z,8.07
2017-08-25T12:20:29.220Z,6.37
2017-08-25T12:26:50.404Z,8.53
2017-08-25T12:35:08.060Z,4.80
2017-08-25T12:37:36.437Z,6.10
2017-08-25T12:40:04.811Z,7.47
2017-08-25T12:42:33.158Z,7.60
2017-08-25T12:45:02.278Z,6.93
2017-08-25T12:47:30.640Z,4.33
2017-08-25T12:49:59.009Z,4.60
2017-08-25T12:52:27.372Z,5.67
2017-08-25T12:54:55.888Z,9.57
2017-08-25T12:57:24.244Z,8.03
2017-08-25T12:59:52.585Z,8.13
2017-08-25T13:02:21.167Z,7.40
2017-08-25T13:04:49.510Z,5.90
2017-08-25T13:07:18.070Z,4.83
2017-08-25T13:09:46.447Z,6.13
2017-08-25T13:12:14.821Z,5.93
2017-08-25T13:14:43.508Z,6.20
2017-08-25T13:17:12.805Z,3.77
2017-08-25T13:19:41.159Z,5.17
2017-08-25T13:22:09.515Z,4.00
2017-08-25T13:24:38.037Z,6.73
2017-08-25T13:27:06.408Z,5.10
2017-08-25T13:29:34.751Z,6.67
2017-08-25T13:32:03.111Z,6.80
2017-08-25T13:34:31.694Z,6.37
2017-08-25T13:37:00.041Z,7.50
2017-08-25T13:39:28.492Z,5.30
2017-08-25T13:41:56.855Z,8.27
2017-08-25T13:44:25.343Z,8.67
2017-08-25T13:46:53.699Z,6.70
2017-08-25T13:49:22.739Z,5.87
2017-08-25T13:51:51.111Z,4.97
2017-08-25T13:54:19.471Z,5.10
2017-08-25T13:56:47.839Z,11.27
2017-08-25T13:59:16.186Z,6.87
2017-08-25T14:01:44.589Z,6.47
2017-08-25T14:04:12.965Z,4.80
2017-08-25T14:06:41.313Z,6.30
2017-08-25T14:09:09.681Z,11.27
2017-08-25T14:11:37.843Z,7.93
2017-08-25T14:14:06.192Z,9.07
2017-08-25T14:16:34.742Z,4.80
2017-08-25T14:19:03.527Z,8.17
2017-08-25T14:21:31.871Z,5.90
2017-08-25T14:24:00.178Z,6.63
2017-08-25T14:26:28.552Z,7.47
2017-08-25T14:28:56.936Z,6.87
2017-08-25T14:31:25.360Z,6.87
2017-08-25T14:33:53.709Z,7.33
2017-08-25T14:36:22.071Z,4.80
2017-08-25T14:38:50.653Z,7.83
2017-08-25T14:41:19.119Z,6.10
2017-08-25T14:43:47.491Z,6.70
2017-08-25T14:46:15.839Z,8.90
2017-08-25T14:48:44.195Z,4.50
2017-08-25T14:51:12.616Z,8.37
2017-08-25T14:53:40.992Z,6.40
2017-08-25T14:56:09.368Z,5.90
2017-08-25T14:58:37.724Z,5.60
2017-08-25T15:01:06.078Z,10.73
2017-08-25T15:03:34.495Z,4.97
2017-08-25T15:06:02.845Z,6.10
2017-08-25T15:08:32.169Z,5.53
2017-08-25T15:11:00.604Z,8.93
2017-08-25T15:13:29.227Z,5.83
2017-08-25T15:15:57.583Z,9.03
2017-08-25T15:18:25.940Z,4.20
2017-08-25T15:20:55.072Z,5.93
2017-08-25T15:23:23.449Z,7.27
2017-08-25T15:25:51.824Z,5.20
2017-08-25T15:28:20.258Z,8.00
2017-08-25T15:30:48.885Z,11.60
2017-08-25T15:33:17.244Z,6.23
2017-08-25T15:35:45.633Z,10.83
2017-08-25T15:38:13.999Z,8.37
2017-08-25T15:40:42.383Z,7.03
2017-08-25T15:43:10.717Z,8.60
2017-08-25T15:45:39.201Z,5.43
2017-08-25T15:48:07.556Z,4.97
2017-08-25T15:50:35.910Z,4.13
2017-08-25T15:53:04.271Z,7.80
2017-08-25T15:55:32.840Z,6.73
2017-08-25T15:58:01.181Z,11.90
2017-08-25T16:00:29.534Z,6.33
2017-08-25T16:02:57.902Z,10.37
2017-08-25T16:05:26.268Z,6.90
2017-08-25T16:07:54.619Z,6.80
2017-08-25T16:10:23.240Z,5.67
2017-08-25T16:12:51.599Z,6.83
2017-08-25T16:15:19.954Z,5.90
2017-08-25T16:17:48.306Z,9.47
2017-08-25T16:20:16.670Z,7.13
2017-08-25T16:22:45.152Z,8.50
2017-08-25T16:25:13.497Z,6.33
2017-08-25T16:27:41.859Z,7.53
2017-08-25T16:30:10.215Z,9.13
2017-08-25T16:32:38.570Z,8.70
2017-08-25T16:35:07.002Z,6.17
2017-08-25T16:37:35.366Z,4.73
2017-08-25T16:40:03.710Z,7.90
2017-08-25T16:42:32.086Z,9.33
2017-08-25T16:45:00.435Z,8.67
2017-08-25T16:47:28.796Z,8.87
2017-08-25T16:49:57.213Z,9.17
2017-08-25T16:52:25.559Z,11.63
2017-08-25T16:54:53.913Z,11.30
2017-08-25T16:57:22.265Z,5.57
2017-08-25T16:59:50.715Z,7.73
2017-08-25T17:02:19.100Z,8.33
2017-08-25T17:04:47.469Z,9.37
2017-08-25T17:07:15.824Z,7.10
2017-08-25T17:09:44.174Z,15.63
2017-08-25T17:12:13.310Z,5.97
2017-08-25T17:14:41.688Z,8.93
2017-08-25T17:17:09.959Z,9.90
2017-08-25T17:19:38.315Z,4.70
2017-08-25T17:22:06.663Z,8.47
2017-08-25T17:24:35.022Z,6.00
2017-08-25T17:27:03.379Z,6.27
2017-08-25T17:29:31.836Z,6.13
2017-08-25T17:32:00.213Z,6.33
2017-08-25T17:34:28.571Z,5.07
2017-08-25T17:36:56.923Z,6.90
2017-08-25T17:39:25.291Z,9.67
2017-08-25T17:41:53.638Z,8.50
2017-08-25T17:44:22.003Z,10.80
2017-08-25T17:46:50.442Z,9.17
2017-08-25T17:49:18.815Z,8.10
2017-08-25T17:51:47.179Z,8.37
2017-08-25T17:54:15.528Z,5.37
2017-08-25T17:56:43.893Z,5.60
2017-08-25T17:59:12.347Z,5.40
2017-08-25T18:01:40.721Z,5.40
2017-08-25T18:04:09.099Z,7.07
2017-08-25T18:06:37.473Z,8.47
2017-08-25T18:09:05.478Z,5.47
2017-08-25T18:11:33.834Z,6.07
2017-08-25T18:14:02.198Z,12.80
2017-08-25T18:16:30.670Z,10.43
2017-08-25T18:18:59.104Z,5.90
2017-08-25T18:21:27.452Z,8.57
2017-08-25T18:23:55.827Z,14.17
2017-08-25T18:26:24.384Z,7.17
2017-08-25T18:28:53.065Z,8.70
2017-08-25T18:31:21.424Z,8.33
2017-08-25T18:33:49.814Z,7.77
2017-08-25T18:36:18.175Z,6.93
2017-08-25T18:38:46.562Z,7.07
2017-08-25T18:41:14.906Z,5.50
2017-08-25T18:43:43.313Z,8.37
2017-08-25T18:46:11.742Z,10.37
2017-08-25T18:48:40.107Z,8.03
2017-08-25T18:51:08.596Z,7.30
2017-08-25T18:53:36.966Z,12.83
2017-08-25T18:56:05.499Z,9.50
2017-08-25T18:58:33.895Z,11.20
2017-08-25T19:01:02.556Z,5.70
2017-08-25T19:03:30.894Z,6.97
2017-08-25T19:06:00.035Z,8.90
2017-08-25T19:08:28.379Z,9.47
2017-08-25T19:10:56.542Z,6.50
2017-08-25T19:13:24.917Z,7.17
2017-08-25T19:15:53.279Z,9.10
2017-08-25T19:18:21.657Z,9.03
2017-08-25T19:20:50.028Z,9.53
2017-08-25T19:23:18.393Z,8.20
2017-08-25T19:25:46.767Z,9.63
2017-08-25T19:28:15.112Z,5.60
2017-08-25T19:30:43.475Z,9.60
2017-08-25T19:33:11.832Z,7.40
2017-08-25T19:35:40.232Z,8.13
2017-08-25T19:38:08.592Z,7.33
2017-08-25T19:40:36.950Z,8.33
2017-08-25T19:43:05.134Z,10.70
2017-08-25T19:45:33.513Z,10.87
2017-08-25T19:48:01.902Z,6.97
2017-08-25T19:50:30.253Z,7.90
2017-08-25T19:52:58.419Z,7.30
2017-08-25T19:55:27.555Z,8.53
2017-08-25T19:57:56.121Z,8.53
2017-08-25T20:00:24.471Z,7.73
2017-08-25T20:02:52.825Z,8.17
2017-08-25T20:05:21.169Z,7.70
2017-08-25T20:07:49.531Z,9.37
2017-08-25T20:10:18.011Z,9.90
2017-08-25T20:12:47.051Z,7.13
2017-08-25T20:15:15.622Z,10.47
2017-08-25T20:17:43.973Z,6.40
2017-08-25T20:20:12.321Z,6.40
2017-08-25T20:22:40.689Z,7.53
2017-08-25T20:25:09.046Z,14.13
2017-08-25T20:27:37.406Z,6.33
2017-08-25T20:30:05.775Z,9.80
2017-08-25T20:32:34.143Z,6.87
2017-08-25T20:35:02.509Z,7.27
2017-08-25T20:37:30.864Z,6.50
2017-08-25T20:39:59.433Z,9.40
2017-08-25T20:42:27.773Z,10.90
2017-08-25T20:44:56.184Z,9.93
2017-08-25T20:47:24.553Z,8.03
2017-08-25T20:49:52.932Z,8.90
2017-08-25T20:52:21.269Z,8.27
2017-08-25T20:54:49.638Z,7.97
2017-08-25T20:57:17.993Z,8.97
2017-08-25T20:59:46.372Z,10.50
2017-08-25T21:02:14.757Z,7.40
2017-08-25T21:04:43.111Z,22.00
2017-08-25T21:07:11.463Z,11.83
2017-08-25T21:09:39.826Z,9.97
2017-08-25T21:12:08.169Z,6.57
2017-08-25T21:14:36.531Z,7.93
2017-08-25T21:17:04.890Z,7.37
2017-08-25T21:19:33.242Z,9.23
2017-08-25T21:22:01.615Z,9.13
2017-08-25T21:24:30.194Z,7.67
2017-08-25T21:26:58.543Z,9.90
2017-08-25T21:29:27.048Z,8.47
2017-08-25T21:31:55.423Z,7.67
2017-08-25T21:34:23.779Z,10.07
2017-08-25T21:36:52.139Z,11.93
2017-08-25T21:39:20.511Z,7.13
2017-08-25T21:41:48.927Z,9.00
2017-08-25T21:44:17.274Z,8.50
2017-08-25T21:46:46.398Z,10.90
2017-08-25T21:49:14.774Z,7.70
2017-08-25T21:51:43.128Z,8.90
2017-08-25T21:54:11.492Z,8.37
2017-08-25T21:56:39.862Z,7.70
2017-08-25T21:59:08.202Z,8.67
2017-08-25T22:01:36.575Z,10.40
2017-08-25T22:04:04.744Z,11.07
2017-08-25T22:06:33.104Z,8.63
2017-08-25T22:09:01.580Z,10.33
2017-08-25T22:11:32.126Z,6.27
2017-08-25T22:14:00.485Z,8.37
2017-08-25T22:16:29.005Z,7.90
2017-08-25T22:18:57.541Z,8.40
2017-08-25T22:21:26.056Z,7.83
2017-08-25T22:23:54.407Z,7.83
2017-08-25T22:26:22.767Z,11.37
2017-08-25T22:28:51.606Z,7.93
2017-08-25T22:31:20.024Z,7.90
2017-08-25T22:33:48.401Z,13.53
2017-08-25T22:36:16.749Z,10.67
2017-08-25T22:38:46.078Z,7.93
2017-08-25T22:41:14.655Z,9.10
2017-08-25T22:43:43.030Z,12.17
2017-08-25T22:46:11.339Z,10.90
2017-08-25T22:48:39.697Z,10.07
2017-08-25T22:51:08.274Z,8.47
2017-08-25T22:53:36.842Z,15.13
2017-08-25T22:56:05.205Z,10.43
2017-08-25T22:58:33.564Z,9.00
2017-08-25T23:01:01.922Z,11.20
2017-08-25T23:03:30.296Z,10.10
2017-08-25T23:05:58.630Z,8.47
2017-08-25T23:08:26.995Z,16.40
2017-08-25T23:10:55.368Z,10.00
2017-08-25T23:13:23.743Z,7.00
2017-08-25T23:15:52.102Z,7.50
2017-08-25T23:18:20.462Z,7.47
2017-08-25T23:20:48.835Z,16.53
2017-08-25T23:23:17.179Z,8.93
2017-08-25T23:25:45.535Z,16.40
2017-08-25T23:28:13.960Z,16.67
2017-08-25T23:30:42.324Z,7.10
2017-08-25T23:33:10.903Z,8.80
2017-08-25T23:35:39.335Z,9.73
2017-08-25T23:38:07.673Z,7.87
2017-08-25T23:40:36.800Z,7.50
2017-08-25T23:43:05.175Z,8.53
2017-08-25T23:45:33.509Z,10.27
2017-08-25T23:48:02.672Z,9.73
2017-08-25T23:50:31.273Z,10.50
2017-08-25T23:52:59.649Z,9.80
2017-08-25T23:55:28.180Z,8.00
2017-08-25T23:57:56.709Z,13.47
